sensor_id;sensor_type;location;lat;lon;timestamp;pressure;altitude;pressure_sealevel;temperature
67599;BMP280;62026;39.230;9.122;2023-03-23T00:00:02;101237.34;;;14.54
67599;BMP280;62026;39.230;9.122;2023-03-23T00:02:36;101243.09;;;14.51
67599;BMP280;62026;39.230;9.122;2023-03-23T00:05:05;101243.91;;;14.52
67599;BMP280;62026;39.230;9.122;2023-03-23T00:07:34;101234.78;;;14.48
67599;BMP280;62026;39.230;9.122;2023-03-23T00:10:01;101235.78;;;14.47
67599;BMP280;62026;39.230;9.122;2023-03-23T00:12:31;101236.81;;;14.46
67599;BMP280;62026;39.230;9.122;2023-03-23T00:15:07;101230.94;;;14.43
67599;BMP280;62026;39.230;9.122;2023-03-23T00:17:34;101232.00;;;14.43
67599;BMP280;62026;39.230;9.122;2023-03-23T00:20:03;101233.59;;;14.43
67599;BMP280;62026;39.230;9.122;2023-03-23T00:22:31;101236.25;;;14.43
67599;BMP280;62026;39.230;9.122;2023-03-23T00:25:05;101236.50;;;14.42
67599;BMP280;62026;39.230;9.122;2023-03-23T00:27:31;101233.59;;;14.43
67599;BMP280;62026;39.230;9.122;2023-03-23T00:29:57;101230.13;;;14.43
67599;BMP280;62026;39.230;9.122;2023-03-23T00:32:25;101228.75;;;14.40
67599;BMP280;62026;39.230;9.122;2023-03-23T00:34:57;101231.59;;;14.39
67599;BMP280;62026;39.230;9.122;2023-03-23T00:37:27;101230.22;;;14.36
67599;BMP280;62026;39.230;9.122;2023-03-23T00:39:53;101224.91;;;14.36
67599;BMP280;62026;39.230;9.122;2023-03-23T00:42:23;101223.28;;;14.35
67599;BMP280;62026;39.230;9.122;2023-03-23T00:44:50;101227.78;;;14.35
67599;BMP280;62026;39.230;9.122;2023-03-23T00:47:16;101221.25;;;14.31
67599;BMP280;62026;39.230;9.122;2023-03-23T00:49:43;101215.16;;;14.30
67599;BMP280;62026;39.230;9.122;2023-03-23T00:52:09;101215.16;;;14.30
67599;BMP280;62026;39.230;9.122;2023-03-23T00:54:36;101212.50;;;14.30
67599;BMP280;62026;39.230;9.122;2023-03-23T00:57:04;101206.38;;;14.30
67599;BMP280;62026;39.230;9.122;2023-03-23T00:59:32;101206.16;;;14.31
67599;BMP280;62026;39.230;9.122;2023-03-23T01:01:58;101205.31;;;14.31
67599;BMP280;62026;39.230;9.122;2023-03-23T01:04:23;101209.03;;;14.30
67599;BMP280;62026;39.230;9.122;2023-03-23T01:06:50;101204.53;;;14.30
67599;BMP280;62026;39.230;9.122;2023-03-23T01:09:19;101204.97;;;14.27
67599;BMP280;62026;39.230;9.122;2023-03-23T01:11:50;101205.19;;;14.26
67599;BMP280;62026;39.230;9.122;2023-03-23T01:14:19;101200.13;;;14.24
67599;BMP280;62026;39.230;9.122;2023-03-23T01:16:47;101204.22;;;14.20
67599;BMP280;62026;39.230;9.122;2023-03-23T01:19:14;101201.78;;;14.19
67599;BMP280;62026;39.230;9.122;2023-03-23T01:21:41;101203.06;;;14.16
67599;BMP280;62026;39.230;9.122;2023-03-23T01:24:08;101201.41;;;14.15
67599;BMP280;62026;39.230;9.122;2023-03-23T01:26:34;101194.47;;;14.14
67599;BMP280;62026;39.230;9.122;2023-03-23T01:29:00;101186.97;;;14.11
67599;BMP280;62026;39.230;9.122;2023-03-23T01:31:26;101192.03;;;14.13
67599;BMP280;62026;39.230;9.122;2023-03-23T01:33:52;101193.31;;;14.10
67599;BMP280;62026;39.230;9.122;2023-03-23T01:36:24;101190.03;;;14.08
67599;BMP280;62026;39.230;9.122;2023-03-23T01:38:53;101190.03;;;14.08
67599;BMP280;62026;39.230;9.122;2023-03-23T01:41:20;101186.38;;;14.09
67599;BMP280;62026;39.230;9.122;2023-03-23T01:46:36;101181.34;;;14.01
67599;BMP280;62026;39.230;9.122;2023-03-23T01:49:15;101179.56;;;13.95
67599;BMP280;62026;39.230;9.122;2023-03-23T01:51:48;101176.31;;;13.93
67599;BMP280;62026;39.230;9.122;2023-03-23T01:54:18;101177.16;;;13.93
67599;BMP280;62026;39.230;9.122;2023-03-23T01:59:20;101175.88;;;13.96
67599;BMP280;62026;39.230;9.122;2023-03-23T02:01:54;101164.13;;;13.85
67599;BMP280;62026;39.230;9.122;2023-03-23T02:04:23;101162.72;;;13.83
67599;BMP280;62026;39.230;9.122;2023-03-23T02:06:52;101159.53;;;13.81
67599;BMP280;62026;39.230;9.122;2023-03-23T02:09:21;101164.34;;;13.84
67599;BMP280;62026;39.230;9.122;2023-03-23T02:11:49;101164.97;;;13.86
67599;BMP280;62026;39.230;9.122;2023-03-23T02:14:17;101163.47;;;13.71
67599;BMP280;62026;39.230;9.122;2023-03-23T02:17:00;101158.81;;;13.67
67599;BMP280;62026;39.230;9.122;2023-03-23T02:32:37;101168.72;;;13.53
67599;BMP280;62026;39.230;9.122;2023-03-23T02:35:03;101168.16;;;13.45
67599;BMP280;62026;39.230;9.122;2023-03-23T02:37:40;101165.28;;;13.46
67599;BMP280;62026;39.230;9.122;2023-03-23T02:40:17;101178.97;;;13.43
67599;BMP280;62026;39.230;9.122;2023-03-23T02:42:51;101164.13;;;13.42
67599;BMP280;62026;39.230;9.122;2023-03-23T02:45:20;101177.19;;;13.37
67599;BMP280;62026;39.230;9.122;2023-03-23T02:47:52;101181.31;;;13.33
67599;BMP280;62026;39.230;9.122;2023-03-23T02:50:22;101189.91;;;13.28
67599;BMP280;62026;39.230;9.122;2023-03-23T02:52:52;101190.34;;;13.25
67599;BMP280;62026;39.230;9.122;2023-03-23T02:55:21;101176.69;;;13.22
67599;BMP280;62026;39.230;9.122;2023-03-23T02:57:52;101176.09;;;13.20
67599;BMP280;62026;39.230;9.122;2023-03-23T03:00:20;101171.22;;;13.17
67599;BMP280;62026;39.230;9.122;2023-03-23T03:02:56;101173.88;;;13.17
67599;BMP280;62026;39.230;9.122;2023-03-23T03:08:45;101169.59;;;13.16
67599;BMP280;62026;39.230;9.122;2023-03-23T03:11:19;101173.28;;;13.15
67599;BMP280;62026;39.230;9.122;2023-03-23T03:14:08;101173.28;;;13.15
67599;BMP280;62026;39.230;9.122;2023-03-23T03:17:21;101174.28;;;13.14
67599;BMP280;62026;39.230;9.122;2023-03-23T03:19:49;101164.94;;;13.11
67599;BMP280;62026;39.230;9.122;2023-03-23T03:22:18;101169.63;;;13.09
67599;BMP280;62026;39.230;9.122;2023-03-23T03:24:48;101170.88;;;13.06
67599;BMP280;62026;39.230;9.122;2023-03-23T03:27:18;101177.78;;;13.07
67599;BMP280;62026;39.230;9.122;2023-03-23T03:29:56;101172.91;;;13.04
67599;BMP280;62026;39.230;9.122;2023-03-23T03:32:34;101169.44;;;13.04
67599;BMP280;62026;39.230;9.122;2023-03-23T03:35:02;101168.06;;;13.01
67599;BMP280;62026;39.230;9.122;2023-03-23T03:37:38;101168.47;;;12.98
67599;BMP280;62026;39.230;9.122;2023-03-23T03:40:18;101169.50;;;12.97
67599;BMP280;62026;39.230;9.122;2023-03-23T03:42:46;101166.06;;;12.97
67599;BMP280;62026;39.230;9.122;2023-03-23T03:45:18;101159.50;;;12.99
67599;BMP280;62026;39.230;9.122;2023-03-23T03:47:44;101166.84;;;12.97
67599;BMP280;62026;39.230;9.122;2023-03-23T03:50:11;101172.13;;;12.97
67599;BMP280;62026;39.230;9.122;2023-03-23T03:52:38;101160.75;;;12.97
67599;BMP280;62026;39.230;9.122;2023-03-23T03:55:07;101160.34;;;12.93
67599;BMP280;62026;39.230;9.122;2023-03-23T03:57:34;101162.00;;;12.94
67599;BMP280;62026;39.230;9.122;2023-03-23T04:00:06;101160.97;;;12.95
67599;BMP280;62026;39.230;9.122;2023-03-23T04:02:50;101158.72;;;12.92
67599;BMP280;62026;39.230;9.122;2023-03-23T04:05:28;101162.38;;;12.91
67599;BMP280;62026;39.230;9.122;2023-03-23T04:07:55;101158.91;;;12.91
67599;BMP280;62026;39.230;9.122;2023-03-23T04:10:31;101166.09;;;12.90
67599;BMP280;62026;39.230;9.122;2023-03-23T04:12:58;101162.84;;;12.88
67599;BMP280;62026;39.230;9.122;2023-03-23T04:15:57;101158.16;;;12.84
67599;BMP280;62026;39.230;9.122;2023-03-23T04:18:23;101164.88;;;12.86
67599;BMP280;62026;39.230;9.122;2023-03-23T04:20:50;101168.53;;;12.85
67599;BMP280;62026;39.230;9.122;2023-03-23T04:23:20;101170.59;;;12.83
67599;BMP280;62026;39.230;9.122;2023-03-23T04:25:50;101171.84;;;12.81
67599;BMP280;62026;39.230;9.122;2023-03-23T04:28:18;101168.97;;;12.82
67599;BMP280;62026;39.230;9.122;2023-03-23T04:31:04;101169.19;;;12.81
67599;BMP280;62026;39.230;9.122;2023-03-23T04:33:30;101174.09;;;12.77
67599;BMP280;62026;39.230;9.122;2023-03-23T04:36:00;101173.50;;;12.75
67599;BMP280;62026;39.230;9.122;2023-03-23T04:38:35;101171.88;;;12.74
67599;BMP280;62026;39.230;9.122;2023-03-23T04:41:09;101171.88;;;12.74
67599;BMP280;62026;39.230;9.122;2023-03-23T04:43:58;101178.38;;;12.71
67599;BMP280;62026;39.230;9.122;2023-03-23T04:46:34;101182.66;;;12.72
67599;BMP280;62026;39.230;9.122;2023-03-23T04:49:06;101185.72;;;12.76
67599;BMP280;62026;39.230;9.122;2023-03-23T04:51:36;101177.97;;;12.74
67599;BMP280;62026;39.230;9.122;2023-03-23T04:54:20;101182.03;;;12.70
67599;BMP280;62026;39.230;9.122;2023-03-23T04:56:50;101184.91;;;12.69
67599;BMP280;62026;39.230;9.122;2023-03-23T04:59:16;101181.66;;;12.67
67599;BMP280;62026;39.230;9.122;2023-03-23T05:01:53;101185.34;;;12.66
67599;BMP280;62026;39.230;9.122;2023-03-23T05:04:20;101181.47;;;12.68
67599;BMP280;62026;39.230;9.122;2023-03-23T05:07:04;101183.09;;;12.69
67599;BMP280;62026;39.230;9.122;2023-03-23T05:09:33;101184.50;;;12.72
67599;BMP280;62026;39.230;9.122;2023-03-23T05:12:08;101182.03;;;12.70
67599;BMP280;62026;39.230;9.122;2023-03-23T05:14:43;101189.78;;;12.72
67599;BMP280;62026;39.230;9.122;2023-03-23T05:17:14;101194.06;;;12.73
67599;BMP280;62026;39.230;9.122;2023-03-23T05:19:43;101190.22;;;12.69
67599;BMP280;62026;39.230;9.122;2023-03-23T05:22:29;101193.06;;;12.67
67599;BMP280;62026;39.230;9.122;2023-03-23T05:25:00;101196.75;;;12.66
67599;BMP280;62026;39.230;9.122;2023-03-23T05:27:31;101197.56;;;12.67
67599;BMP280;62026;39.230;9.122;2023-03-23T05:30:02;101204.09;;;12.64
67599;BMP280;62026;39.230;9.122;2023-03-23T05:32:30;101205.91;;;12.64
67599;BMP280;62026;39.230;9.122;2023-03-23T05:35:04;101206.31;;;12.67
67599;BMP280;62026;39.230;9.122;2023-03-23T05:37:30;101209.34;;;12.71
67599;BMP280;62026;39.230;9.122;2023-03-23T05:40:07;101204.88;;;12.71
67599;BMP280;62026;39.230;9.122;2023-03-23T05:42:44;101209.97;;;12.73
67599;BMP280;62026;39.230;9.122;2023-03-23T05:45:18;101210.13;;;12.78
67599;BMP280;62026;39.230;9.122;2023-03-23T05:47:47;101213.63;;;12.79
67599;BMP280;62026;39.230;9.122;2023-03-23T05:50:18;101215.41;;;12.78
67599;BMP280;62026;39.230;9.122;2023-03-23T05:52:44;101212.19;;;12.76
67599;BMP280;62026;39.230;9.122;2023-03-23T05:55:13;101218.31;;;12.77
67599;BMP280;62026;39.230;9.122;2023-03-23T05:57:41;101226.00;;;12.78
67599;BMP280;62026;39.230;9.122;2023-03-23T06:00:18;101228.66;;;12.78
67599;BMP280;62026;39.230;9.122;2023-03-23T06:02:56;101231.13;;;12.80
67599;BMP280;62026;39.230;9.122;2023-03-23T06:05:31;101230.09;;;12.81
67599;BMP280;62026;39.230;9.122;2023-03-23T06:07:58;101229.28;;;12.80
67599;BMP280;62026;39.230;9.122;2023-03-23T06:10:25;101236.22;;;12.81
67599;BMP280;62026;39.230;9.122;2023-03-23T06:12:58;101241.53;;;12.81
67599;BMP280;62026;39.230;9.122;2023-03-23T06:15:45;101243.34;;;12.81
67599;BMP280;62026;39.230;9.122;2023-03-23T06:18:21;101240.91;;;12.79
67599;BMP280;62026;39.230;9.122;2023-03-23T06:21:10;101252.13;;;12.81
67599;BMP280;62026;39.230;9.122;2023-03-23T06:23:50;101254.75;;;12.81
67599;BMP280;62026;39.230;9.122;2023-03-23T06:26:20;101251.91;;;12.83
67599;BMP280;62026;39.230;9.122;2023-03-23T06:28:55;101260.44;;;12.85
67599;BMP280;62026;39.230;9.122;2023-03-23T06:31:21;101266.78;;;12.84
67599;BMP280;62026;39.230;9.122;2023-03-23T06:33:49;101266.53;;;12.85
67599;BMP280;62026;39.230;9.122;2023-03-23T06:36:37;101272.88;;;12.84
67599;BMP280;62026;39.230;9.122;2023-03-23T06:39:13;101282.25;;;12.87
67599;BMP280;62026;39.230;9.122;2023-03-23T06:42:02;101284.25;;;12.91
67599;BMP280;62026;39.230;9.122;2023-03-23T06:44:33;101284.69;;;12.88
67599;BMP280;62026;39.230;9.122;2023-03-23T06:46:59;101279.56;;;12.93
67599;BMP280;62026;39.230;9.122;2023-03-23T06:49:29;101288.34;;;12.94
67599;BMP280;62026;39.230;9.122;2023-03-23T06:52:03;101296.09;;;12.95
67599;BMP280;62026;39.230;9.122;2023-03-23T06:54:32;101302.22;;;12.96
67599;BMP280;62026;39.230;9.122;2023-03-23T06:57:01;101307.50;;;13.02
67599;BMP280;62026;39.230;9.122;2023-03-23T06:59:27;101299.53;;;13.02
67599;BMP280;62026;39.230;9.122;2023-03-23T07:01:53;101298.06;;;13.06
67599;BMP280;62026;39.230;9.122;2023-03-23T07:04:19;101311.09;;;13.08
67599;BMP280;62026;39.230;9.122;2023-03-23T07:07:02;101316.22;;;13.10
67599;BMP280;62026;39.230;9.122;2023-03-23T07:09:32;101313.13;;;13.13
67599;BMP280;62026;39.230;9.122;2023-03-23T07:11:58;101321.69;;;13.15
67599;BMP280;62026;39.230;9.122;2023-03-23T07:14:32;101330.25;;;13.17
67599;BMP280;62026;39.230;9.122;2023-03-23T07:16:58;101334.53;;;13.18
67599;BMP280;62026;39.230;9.122;2023-03-23T07:19:24;101325.53;;;13.25
67599;BMP280;62026;39.230;9.122;2023-03-23T07:21:51;101331.97;;;13.81
67599;BMP280;62026;39.230;9.122;2023-03-23T07:24:20;101333.38;;;14.08
67599;BMP280;62026;39.230;9.122;2023-03-23T07:39:16;101325.22;;;15.26
67599;BMP280;62026;39.230;9.122;2023-03-23T07:41:44;101328.56;;;15.51
67599;BMP280;62026;39.230;9.122;2023-03-23T07:44:23;101326.91;;;15.80
67599;BMP280;62026;39.230;9.122;2023-03-23T07:46:51;101328.09;;;16.07
67599;BMP280;62026;39.230;9.122;2023-03-23T07:49:26;101330.75;;;16.19
67599;BMP280;62026;39.230;9.122;2023-03-23T07:52:03;101331.56;;;16.43
67599;BMP280;62026;39.230;9.122;2023-03-23T07:54:29;101334.91;;;16.62
67599;BMP280;62026;39.230;9.122;2023-03-23T07:57:03;101325.34;;;16.77
67599;BMP280;62026;39.230;9.122;2023-03-23T07:59:33;101331.31;;;16.96
67599;BMP280;62026;39.230;9.122;2023-03-23T08:01:59;101326.41;;;17.05
67599;BMP280;62026;39.230;9.122;2023-03-23T08:04:45;101322.28;;;17.26
67599;BMP280;62026;39.230;9.122;2023-03-23T08:07:35;101325.78;;;17.43
67599;BMP280;62026;39.230;9.122;2023-03-23T08:10:17;101324.28;;;17.64
67599;BMP280;62026;39.230;9.122;2023-03-23T08:12:55;101328.53;;;17.81
67599;BMP280;62026;39.230;9.122;2023-03-23T08:15:40;101328.63;;;17.86
67599;BMP280;62026;39.230;9.122;2023-03-23T08:18:25;101330.34;;;17.92
67599;BMP280;62026;39.230;9.122;2023-03-23T08:21:10;101325.91;;;18.20
67599;BMP280;62026;39.230;9.122;2023-03-23T08:24:06;101322.97;;;18.38
67599;BMP280;62026;39.230;9.122;2023-03-23T08:26:45;101325.75;;;18.48
67599;BMP280;62026;39.230;9.122;2023-03-23T08:29:11;101325.03;;;19.02
67599;BMP280;62026;39.230;9.122;2023-03-23T08:31:49;101328.47;;;18.70
67599;BMP280;62026;39.230;9.122;2023-03-23T08:34:29;101333.72;;;18.87
67599;BMP280;62026;39.230;9.122;2023-03-23T08:37:02;101336.38;;;18.87
67599;BMP280;62026;39.230;9.122;2023-03-23T08:39:52;101331.13;;;18.97
67599;BMP280;62026;39.230;9.122;2023-03-23T08:42:43;101336.63;;;19.12
67599;BMP280;62026;39.230;9.122;2023-03-23T08:45:28;101330.34;;;19.23
67599;BMP280;62026;39.230;9.122;2023-03-23T08:48:24;101344.41;;;19.41
67599;BMP280;62026;39.230;9.122;2023-03-23T08:50:56;101340.78;;;19.52
67599;BMP280;62026;39.230;9.122;2023-03-23T08:53:48;101340.78;;;19.57
67599;BMP280;62026;39.230;9.122;2023-03-23T08:56:34;101346.03;;;19.73
67599;BMP280;62026;39.230;9.122;2023-03-23T08:59:10;101346.38;;;19.87
67599;BMP280;62026;39.230;9.122;2023-03-23T09:01:49;101356.81;;;20.31
67599;BMP280;62026;39.230;9.122;2023-03-23T09:04:20;101356.50;;;20.17
67599;BMP280;62026;39.230;9.122;2023-03-23T09:07:10;101358.47;;;20.42
67599;BMP280;62026;39.230;9.122;2023-03-23T09:09:38;101362.47;;;21.17
67599;BMP280;62026;39.230;9.122;2023-03-23T09:12:09;101361.84;;;20.74
67599;BMP280;62026;39.230;9.122;2023-03-23T09:14:37;101365.59;;;20.73
67599;BMP280;62026;39.230;9.122;2023-03-23T09:17:04;101368.34;;;20.89
67599;BMP280;62026;39.230;9.122;2023-03-23T09:19:35;101368.66;;;21.43
67599;BMP280;62026;39.230;9.122;2023-03-23T09:22:04;101370.00;;;21.40
67599;BMP280;62026;39.230;9.122;2023-03-23T09:24:31;101368.38;;;21.39
67599;BMP280;62026;39.230;9.122;2023-03-23T09:26:57;101362.75;;;21.46
67599;BMP280;62026;39.230;9.122;2023-03-23T09:29:25;101372.13;;;21.23
67599;BMP280;62026;39.230;9.122;2023-03-23T09:31:54;101367.56;;;21.69
67599;BMP280;62026;39.230;9.122;2023-03-23T09:34:20;101360.84;;;21.16
67599;BMP280;62026;39.230;9.122;2023-03-23T09:36:46;101361.91;;;21.55
67599;BMP280;62026;39.230;9.122;2023-03-23T09:39:13;101357.66;;;21.65
67599;BMP280;62026;39.230;9.122;2023-03-23T09:41:47;101353.88;;;21.45
67599;BMP280;62026;39.230;9.122;2023-03-23T09:44:43;101349.03;;;21.47
67599;BMP280;62026;39.230;9.122;2023-03-23T09:50:12;101356.00;;;21.69
67599;BMP280;62026;39.230;9.122;2023-03-23T09:52:52;101356.53;;;21.76
67599;BMP280;62026;39.230;9.122;2023-03-23T09:55:21;101343.56;;;21.98
67599;BMP280;62026;39.230;9.122;2023-03-23T09:58:02;101347.69;;;22.50
67599;BMP280;62026;39.230;9.122;2023-03-23T10:00:40;101343.84;;;22.56
67599;BMP280;62026;39.230;9.122;2023-03-23T10:03:17;101336.34;;;22.58
67599;BMP280;62026;39.230;9.122;2023-03-23T10:05:53;101339.66;;;22.39
67599;BMP280;62026;39.230;9.122;2023-03-23T10:08:24;101340.06;;;22.67
67599;BMP280;62026;39.230;9.122;2023-03-23T10:16:24;101333.09;;;22.56
67599;BMP280;62026;39.230;9.122;2023-03-23T10:22:10;101330.63;;;22.64
67599;BMP280;62026;39.230;9.122;2023-03-23T10:25:35;101330.28;;;22.76
67599;BMP280;62026;39.230;9.122;2023-03-23T10:28:36;101326.78;;;23.14
67599;BMP280;62026;39.230;9.122;2023-03-23T10:31:05;101322.47;;;22.80
67599;BMP280;62026;39.230;9.122;2023-03-23T10:36:13;101320.47;;;22.95
67599;BMP280;62026;39.230;9.122;2023-03-23T10:39:13;101321.56;;;22.94
67599;BMP280;62026;39.230;9.122;2023-03-23T10:41:42;101317.88;;;22.80
67599;BMP280;62026;39.230;9.122;2023-03-23T10:44:24;101313.34;;;23.09
67599;BMP280;62026;39.230;9.122;2023-03-23T10:47:05;101315.09;;;22.95
67599;BMP280;62026;39.230;9.122;2023-03-23T10:49:43;101316.88;;;22.71
67599;BMP280;62026;39.230;9.122;2023-03-23T10:52:36;101320.50;;;22.51
67599;BMP280;62026;39.230;9.122;2023-03-23T10:55:14;101320.53;;;22.41
67599;BMP280;62026;39.230;9.122;2023-03-23T10:57:58;101318.78;;;22.16
67599;BMP280;62026;39.230;9.122;2023-03-23T11:00:26;101329.56;;;22.11
67599;BMP280;62026;39.230;9.122;2023-03-23T11:03:23;101323.19;;;21.77
67599;BMP280;62026;39.230;9.122;2023-03-23T11:05:59;101331.50;;;21.90
67599;BMP280;62026;39.230;9.122;2023-03-23T11:08:35;101326.97;;;21.81
67599;BMP280;62026;39.230;9.122;2023-03-23T11:11:31;101323.72;;;21.79
67599;BMP280;62026;39.230;9.122;2023-03-23T11:14:15;101325.41;;;21.49
67599;BMP280;62026;39.230;9.122;2023-03-23T11:16:55;101319.50;;;21.57
67599;BMP280;62026;39.230;9.122;2023-03-23T11:19:34;101325.63;;;21.63
67599;BMP280;62026;39.230;9.122;2023-03-23T11:24:41;101323.25;;;21.16
67599;BMP280;62026;39.230;9.122;2023-03-23T11:27:09;101333.44;;;20.99
67599;BMP280;62026;39.230;9.122;2023-03-23T11:30:38;101321.94;;;21.13
67599;BMP280;62026;39.230;9.122;2023-03-23T11:32:44;101327.50;;;21.02
67599;BMP280;62026;39.230;9.122;2023-03-23T11:35:28;101321.38;;;20.96
67599;BMP280;62026;39.230;9.122;2023-03-23T11:37:57;101324.28;;;20.79
67599;BMP280;62026;39.230;9.122;2023-03-23T11:40:30;101313.25;;;20.71
67599;BMP280;62026;39.230;9.122;2023-03-23T11:43:12;101313.00;;;20.77
67599;BMP280;62026;39.230;9.122;2023-03-23T11:46:01;101311.66;;;20.80
67599;BMP280;62026;39.230;9.122;2023-03-23T11:49:24;101307.56;;;20.57
67599;BMP280;62026;39.230;9.122;2023-03-23T11:52:21;101301.94;;;20.54
67599;BMP280;62026;39.230;9.122;2023-03-23T11:55:08;101300.31;;;20.53
67599;BMP280;62026;39.230;9.122;2023-03-23T11:57:36;101296.81;;;20.47
67599;BMP280;62026;39.230;9.122;2023-03-23T12:00:16;101293.66;;;19.98
67599;BMP280;62026;39.230;9.122;2023-03-23T12:03:35;101293.31;;;19.84
67599;BMP280;62026;39.230;9.122;2023-03-23T12:06:10;101291.22;;;19.96
67599;BMP280;62026;39.230;9.122;2023-03-23T12:28:59;101305.69;;;18.68
67599;BMP280;62026;39.230;9.122;2023-03-23T12:31:59;101304.34;;;18.92
67599;BMP280;62026;39.230;9.122;2023-03-23T12:48:43;101303.31;;;18.27
67599;BMP280;62026;39.230;9.122;2023-03-23T12:51:47;101307.00;;;18.05
67599;BMP280;62026;39.230;9.122;2023-03-23T12:57:18;101302.00;;;17.91
67599;BMP280;62026;39.230;9.122;2023-03-23T13:00:20;101293.38;;;17.84
67599;BMP280;62026;39.230;9.122;2023-03-23T13:06:05;101284.84;;;17.87
67599;BMP280;62026;39.230;9.122;2023-03-23T13:08:44;101287.50;;;17.87
67599;BMP280;62026;39.230;9.122;2023-03-23T13:11:33;101289.06;;;17.83
67599;BMP280;62026;39.230;9.122;2023-03-23T13:14:36;101300.56;;;17.50
67599;BMP280;62026;39.230;9.122;2023-03-23T13:20:42;101295.28;;;17.39
67599;BMP280;62026;39.230;9.122;2023-03-23T13:23:37;101285.28;;;17.63
67599;BMP280;62026;39.230;9.122;2023-03-23T13:26:18;101282.84;;;17.78
67599;BMP280;62026;39.230;9.122;2023-03-23T13:28:55;101276.44;;;17.62
67599;BMP280;62026;39.230;9.122;2023-03-23T13:34:29;101285.03;;;17.64
67599;BMP280;62026;39.230;9.122;2023-03-23T13:37:06;101268.66;;;17.77
67599;BMP280;62026;39.230;9.122;2023-03-23T13:40:23;101260.00;;;17.87
67599;BMP280;62026;39.230;9.122;2023-03-23T13:42:56;101253.91;;;18.08
67599;BMP280;62026;39.230;9.122;2023-03-23T13:53:31;101254.91;;;17.85
67599;BMP280;62026;39.230;9.122;2023-03-23T13:56:57;101258.13;;;17.87
67599;BMP280;62026;39.230;9.122;2023-03-23T14:02:28;101250.06;;;17.66
67599;BMP280;62026;39.230;9.122;2023-03-23T14:04:56;101244.88;;;17.76
67599;BMP280;62026;39.230;9.122;2023-03-23T14:07:23;101245.81;;;17.86
67599;BMP280;62026;39.230;9.122;2023-03-23T14:09:51;101243.38;;;18.02
67599;BMP280;62026;39.230;9.122;2023-03-23T14:12:27;101237.44;;;17.78
67599;BMP280;62026;39.230;9.122;2023-03-23T14:15:02;101232.38;;;17.81
67599;BMP280;62026;39.230;9.122;2023-03-23T14:17:41;101223.97;;;17.89
67599;BMP280;62026;39.230;9.122;2023-03-23T14:20:32;101226.38;;;18.08
67599;BMP280;62026;39.230;9.122;2023-03-23T14:23:00;101225.72;;;18.01
67599;BMP280;62026;39.230;9.122;2023-03-23T14:25:30;101228.22;;;17.85
67599;BMP280;62026;39.230;9.122;2023-03-23T14:27:58;101228.13;;;17.80
67599;BMP280;62026;39.230;9.122;2023-03-23T14:30:33;101225.03;;;17.88
67599;BMP280;62026;39.230;9.122;2023-03-23T14:33:06;101226.06;;;17.87
67599;BMP280;62026;39.230;9.122;2023-03-23T14:35:37;101225.28;;;17.87
67599;BMP280;62026;39.230;9.122;2023-03-23T14:38:15;101231.44;;;17.87
67599;BMP280;62026;39.230;9.122;2023-03-23T14:40:42;101221.91;;;17.97
67599;BMP280;62026;39.230;9.122;2023-03-23T14:43:14;101219.19;;;17.91
67599;BMP280;62026;39.230;9.122;2023-03-23T14:45:41;101219.84;;;17.99
67599;BMP280;62026;39.230;9.122;2023-03-23T14:48:13;101226.81;;;18.00
67599;BMP280;62026;39.230;9.122;2023-03-23T14:50:52;101225.31;;;18.09
67599;BMP280;62026;39.230;9.122;2023-03-23T14:53:37;101227.47;;;18.12
67599;BMP280;62026;39.230;9.122;2023-03-23T14:56:23;101229.47;;;18.00
67599;BMP280;62026;39.230;9.122;2023-03-23T14:58:53;101229.28;;;18.06
67599;BMP280;62026;39.230;9.122;2023-03-23T15:01:27;101224.19;;;18.05
67599;BMP280;62026;39.230;9.122;2023-03-23T15:04:10;101233.56;;;17.85
67599;BMP280;62026;39.230;9.122;2023-03-23T15:06:42;101236.69;;;17.99
67599;BMP280;62026;39.230;9.122;2023-03-23T15:09:21;101239.66;;;18.03
67599;BMP280;62026;39.230;9.122;2023-03-23T15:11:59;101251.81;;;17.94
67599;BMP280;62026;39.230;9.122;2023-03-23T15:14:45;101249.28;;;18.04
67599;BMP280;62026;39.230;9.122;2023-03-23T15:17:23;101251.47;;;17.68
67599;BMP280;62026;39.230;9.122;2023-03-23T15:19:52;101251.22;;;17.70
67599;BMP280;62026;39.230;9.122;2023-03-23T15:22:24;101248.75;;;17.51
67599;BMP280;62026;39.230;9.122;2023-03-23T15:25:11;101247.06;;;17.62
67599;BMP280;62026;39.230;9.122;2023-03-23T15:27:48;101242.16;;;17.71
67599;BMP280;62026;39.230;9.122;2023-03-23T15:30:35;101243.28;;;17.58
67599;BMP280;62026;39.230;9.122;2023-03-23T15:33:12;101247.56;;;17.59
67599;BMP280;62026;39.230;9.122;2023-03-23T15:35:45;101246.19;;;17.73
67599;BMP280;62026;39.230;9.122;2023-03-23T15:38:30;101237.69;;;17.76
67599;BMP280;62026;39.230;9.122;2023-03-23T15:41:04;101240.41;;;17.81
67599;BMP280;62026;39.230;9.122;2023-03-23T15:43:48;101237.69;;;17.76
67599;BMP280;62026;39.230;9.122;2023-03-23T15:49:08;101241.78;;;17.67
67599;BMP280;62026;39.230;9.122;2023-03-23T15:51:36;101246.69;;;17.53
67599;BMP280;62026;39.230;9.122;2023-03-23T15:54:07;101244.56;;;17.72
67599;BMP280;62026;39.230;9.122;2023-03-23T15:56:34;101240.34;;;17.76
67599;BMP280;62026;39.230;9.122;2023-03-23T15:59:01;101243.03;;;17.76
67599;BMP280;62026;39.230;9.122;2023-03-23T16:01:28;101235.91;;;17.65
67599;BMP280;62026;39.230;9.122;2023-03-23T16:04:05;101243.22;;;17.53
67599;BMP280;62026;39.230;9.122;2023-03-23T16:06:34;101237.53;;;17.66
67599;BMP280;62026;39.230;9.122;2023-03-23T16:09:02;101249.75;;;17.62
67599;BMP280;62026;39.230;9.122;2023-03-23T16:11:30;101247.66;;;17.64
67599;BMP280;62026;39.230;9.122;2023-03-23T16:13:58;101251.03;;;17.60
67599;BMP280;62026;39.230;9.122;2023-03-23T16:19:01;101241.03;;;17.50
67599;BMP280;62026;39.230;9.122;2023-03-23T16:21:27;101239.09;;;17.45
67599;BMP280;62026;39.230;9.122;2023-03-23T16:23:54;101248.63;;;17.41
67599;BMP280;62026;39.230;9.122;2023-03-23T16:26:21;101240.19;;;17.33
67599;BMP280;62026;39.230;9.122;2023-03-23T16:28:47;101251.19;;;17.19
67599;BMP280;62026;39.230;9.122;2023-03-23T16:31:13;101254.13;;;17.35
67599;BMP280;62026;39.230;9.122;2023-03-23T16:33:39;101251.88;;;17.27